createdAt,value
2019-05-13T00:00:16.721Z,51.80
2019-05-13T00:02:45.123Z,51.90
2019-05-13T00:05:14.673Z,51.90
2019-05-13T00:07:44.028Z,51.90
2019-05-13T00:10:14.780Z,52.00
2019-05-13T00:12:44.626Z,52.00
2019-05-13T00:15:14.231Z,52.30
2019-05-13T00:17:44.707Z,52.50
2019-05-13T00:20:14.053Z,52.20
2019-05-13T00:22:44.602Z,52.20
2019-05-13T00:25:14.715Z,52.10
2019-05-13T00:27:44.465Z,52.10
2019-05-13T00:30:14.642Z,52.00
2019-05-13T00:32:44.588Z,52.30
2019-05-13T00:35:14.211Z,52.30
2019-05-13T00:37:44.314Z,52.20
2019-05-13T00:40:14.364Z,52.00
2019-05-13T00:42:44.183Z,52.20
2019-05-13T00:45:14.630Z,52.20
2019-05-13T00:47:44.007Z,52.20
2019-05-13T00:50:14.283Z,52.30
2019-05-13T00:52:44.828Z,52.60
2019-05-13T00:55:14.692Z,52.30
2019-05-13T00:57:43.894Z,52.30
2019-05-13T01:00:14.114Z,52.30
2019-05-13T01:02:44.561Z,52.40
2019-05-13T01:05:14.652Z,52.30
2019-05-13T01:07:44.326Z,52.40
2019-05-13T01:10:13.486Z,52.50
2019-05-13T01:12:44.046Z,52.60
2019-05-13T01:15:14.958Z,52.50
2019-05-13T01:17:44.726Z,52.50
2019-05-13T01:20:14.593Z,52.70
2019-05-13T01:22:44.091Z,52.90
2019-05-13T01:25:14.500Z,53.00
2019-05-13T01:27:44.296Z,53.20
2019-05-13T01:30:13.451Z,53.20
2019-05-13T01:32:44.614Z,53.30
2019-05-13T01:35:14.880Z,53.40
2019-05-13T01:37:45.940Z,53.40
2019-05-13T01:40:14.425Z,53.40
2019-05-13T01:42:44.397Z,53.50
2019-05-13T01:45:13.981Z,53.70
2019-05-13T01:47:43.997Z,53.70
2019-05-13T01:50:14.322Z,53.80
2019-05-13T01:52:44.662Z,53.90
2019-05-13T01:55:14.515Z,54.00
2019-05-13T01:57:44.331Z,53.90
2019-05-13T02:00:14.748Z,54.10
2019-05-13T02:02:44.574Z,54.10
2019-05-13T02:05:14.145Z,54.20
2019-05-13T02:07:54.526Z,54.30
2019-05-13T02:10:15.041Z,54.30
2019-05-13T02:12:44.665Z,54.70
2019-05-13T02:15:14.618Z,54.40
2019-05-13T02:17:44.596Z,54.40
2019-05-13T02:20:14.899Z,54.40
2019-05-13T02:22:44.426Z,54.50
2019-05-13T02:25:13.933Z,54.60
2019-05-13T02:27:44.135Z,54.70
2019-05-13T02:30:16.080Z,54.90
2019-05-13T02:32:43.337Z,54.70
2019-05-13T02:35:14.062Z,54.90
2019-05-13T02:37:43.403Z,54.90
2019-05-13T02:40:13.430Z,55.00
2019-05-13T02:42:43.628Z,55.00
2019-05-13T02:45:13.384Z,55.10
2019-05-13T02:47:44.133Z,55.20
2019-05-13T02:50:13.329Z,55.20
2019-05-13T02:52:44.441Z,55.40
2019-05-13T02:55:12.620Z,55.40
2019-05-13T02:57:43.799Z,55.30
2019-05-13T03:00:12.876Z,55.40
2019-05-13T03:02:43.974Z,55.40
2019-05-13T03:05:13.793Z,55.40
2019-05-13T03:07:43.373Z,55.50
2019-05-13T03:10:13.949Z,55.60
2019-05-13T03:12:42.883Z,55.90
2019-05-13T03:15:13.617Z,56.00
2019-05-13T03:17:53.459Z,55.70
2019-05-13T03:20:22.891Z,55.90
2019-05-13T03:22:52.848Z,55.80
2019-05-13T03:25:22.690Z,55.90
2019-05-13T03:27:54.079Z,55.90
2019-05-13T03:30:25.418Z,55.90
2019-05-13T03:33:00.641Z,56.00
2019-05-13T03:35:26.982Z,56.10
2019-05-13T03:37:53.378Z,56.10
2019-05-13T03:40:23.065Z,56.00
2019-05-13T03:42:53.649Z,56.20
2019-05-13T03:45:24.440Z,56.10
2019-05-13T03:47:55.515Z,56.20
2019-05-13T03:50:24.036Z,56.20
2019-05-13T03:52:52.794Z,56.20
2019-05-13T03:55:23.147Z,56.20
2019-05-13T03:57:53.237Z,56.20
2019-05-13T04:00:23.520Z,56.30
2019-05-13T04:02:53.200Z,56.30
2019-05-13T04:05:23.243Z,56.50
2019-05-13T04:07:52.638Z,56.50
2019-05-13T04:10:22.962Z,56.60
2019-05-13T04:12:53.043Z,56.60
2019-05-13T04:15:23.433Z,56.60
2019-05-13T04:17:53.316Z,56.70
2019-05-13T04:20:23.233Z,56.70
2019-05-13T04:22:53.075Z,56.80
2019-05-13T04:25:23.333Z,56.80
2019-05-13T04:27:53.288Z,57.60
2019-05-13T04:30:22.652Z,56.90
2019-05-13T04:32:53.432Z,56.80
2019-05-13T04:35:23.395Z,56.80
2019-05-13T04:37:52.962Z,56.90
2019-05-13T04:40:23.221Z,56.80
2019-05-13T04:42:53.402Z,57.10
2019-05-13T04:45:23.813Z,57.10
2019-05-13T04:47:53.081Z,57.10
2019-05-13T04:50:22.593Z,57.10
2019-05-13T04:52:52.790Z,57.30
2019-05-13T04:55:22.971Z,57.20
2019-05-13T04:57:53.293Z,57.30
2019-05-13T05:00:49.861Z,57.40
2019-05-13T05:03:41.340Z,57.40
2019-05-13T05:06:12.017Z,57.30
2019-05-13T05:08:52.671Z,57.50
2019-05-13T05:11:32.627Z,57.40
2019-05-13T05:14:22.597Z,57.40
2019-05-13T05:17:02.928Z,57.40
2019-05-13T05:19:47.363Z,57.50
2019-05-13T05:22:32.185Z,57.50
2019-05-13T05:25:03.701Z,57.50
2019-05-13T05:27:35.258Z,57.40
2019-05-13T05:30:26.334Z,57.50
2019-05-13T05:33:03.737Z,57.60
2019-05-13T05:36:04.262Z,57.50
2019-05-13T05:38:53.443Z,57.40
2019-05-13T05:41:24.886Z,57.40
2019-05-13T05:43:55.542Z,57.50
2019-05-13T05:46:26.389Z,57.40
2019-05-13T05:48:57.902Z,57.40
2019-05-13T05:51:27.598Z,58.20
2019-05-13T05:53:57.617Z,57.60
2019-05-13T05:56:29.225Z,57.70
2019-05-13T05:59:02.732Z,57.80
2019-05-13T06:01:32.538Z,57.80
2019-05-13T06:04:01.546Z,57.90
2019-05-13T06:06:32.897Z,58.10
2019-05-13T06:09:01.871Z,58.00
2019-05-13T06:11:32.925Z,58.30
2019-05-13T06:14:02.292Z,58.20
2019-05-13T06:16:32.041Z,58.40
2019-05-13T06:19:01.406Z,58.50
2019-05-13T06:21:32.117Z,58.40
2019-05-13T06:24:02.774Z,59.20
2019-05-13T06:26:31.455Z,58.60
2019-05-13T06:29:02.539Z,58.70
2019-05-13T06:31:32.307Z,58.80
2019-05-13T06:34:02.073Z,58.90
2019-05-13T06:36:31.649Z,59.00
2019-05-13T06:39:02.248Z,59.00
2019-05-13T06:41:32.373Z,59.00
2019-05-13T06:44:02.302Z,59.00
2019-05-13T06:46:32.299Z,59.10
2019-05-13T06:49:02.858Z,59.20
2019-05-13T06:51:31.454Z,59.20
2019-05-13T06:54:02.245Z,59.30
2019-05-13T06:56:32.308Z,61.10
2019-05-13T06:59:01.467Z,61.20
2019-05-13T07:01:32.263Z,60.20
2019-05-13T07:04:02.343Z,58.90
2019-05-13T07:06:32.315Z,57.20
2019-05-13T07:09:01.401Z,55.90
2019-05-13T07:11:31.421Z,54.40
2019-05-13T07:14:02.381Z,52.80
2019-05-13T07:16:31.750Z,51.70
2019-05-13T07:19:02.618Z,51.10
2019-05-13T07:21:32.325Z,50.50
2019-05-13T07:24:02.230Z,49.60
2019-05-13T07:26:31.624Z,49.30
2019-05-13T07:29:03.339Z,48.50
2019-05-13T07:31:32.371Z,47.90
2019-05-13T07:34:02.476Z,47.40
2019-05-13T07:36:31.763Z,46.30
2019-05-13T07:39:01.519Z,45.60
2019-05-13T07:41:36.441Z,45.40
2019-05-13T07:44:02.439Z,44.70
2019-05-13T07:46:32.251Z,44.20
2019-05-13T07:49:02.120Z,43.80
2019-05-13T07:51:31.637Z,43.30
2019-05-13T07:54:02.186Z,42.80
2019-05-13T07:56:32.446Z,42.70
2019-05-13T07:59:01.748Z,42.50
2019-05-13T08:01:32.791Z,42.40
2019-05-13T08:04:02.156Z,42.40
2019-05-13T08:06:32.331Z,42.10
2019-05-13T08:09:01.715Z,42.50
2019-05-13T08:11:36.809Z,42.50
2019-05-13T08:14:01.812Z,42.50
2019-05-13T08:16:32.275Z,41.80
2019-05-13T08:19:01.813Z,41.70
2019-05-13T08:21:32.279Z,41.70
2019-05-13T08:24:02.801Z,41.80
2019-05-13T08:26:32.251Z,41.40
2019-05-13T08:29:05.383Z,41.70
2019-05-13T08:31:32.266Z,42.00
2019-05-13T08:34:02.518Z,41.80
2019-05-13T08:36:32.724Z,41.70
2019-05-13T08:39:02.601Z,41.70
2019-05-13T08:41:32.243Z,41.80
2019-05-13T08:44:01.742Z,41.40
2019-05-13T08:46:32.255Z,42.30
2019-05-13T08:49:03.770Z,40.90
2019-05-13T08:51:33.989Z,40.50
2019-05-13T08:54:02.439Z,39.50
2019-05-13T08:56:32.601Z,39.90
2019-05-13T08:59:01.307Z,40.00
2019-05-13T09:01:31.937Z,39.50
2019-05-13T09:04:02.303Z,39.20
2019-05-13T09:06:31.262Z,38.90
2019-05-13T09:09:01.813Z,38.60
2019-05-13T09:11:32.207Z,38.60
2019-05-13T09:14:02.357Z,38.70
2019-05-13T09:16:32.005Z,38.40
2019-05-13T09:19:03.877Z,38.00
2019-05-13T09:21:32.486Z,37.20
2019-05-13T09:24:02.198Z,37.40
2019-05-13T09:26:31.678Z,37.70
2019-05-13T09:29:01.436Z,37.90
2019-05-13T09:31:32.423Z,38.10
2019-05-13T09:34:01.429Z,38.60
2019-05-13T09:36:32.306Z,39.00
2019-05-13T09:39:02.141Z,39.30
2019-05-13T09:41:32.296Z,38.80
2019-05-13T09:44:02.039Z,37.70
2019-05-13T09:46:31.901Z,38.20
2019-05-13T09:49:15.083Z,38.70
2019-05-13T09:51:32.325Z,38.50
2019-05-13T09:54:01.400Z,38.30
2019-05-13T09:56:31.915Z,36.70
2019-05-13T09:59:01.825Z,36.60
2019-05-13T10:01:31.984Z,35.80
2019-05-13T10:04:02.955Z,35.90
2019-05-13T10:06:32.739Z,35.40
2019-05-13T10:09:02.245Z,35.20
2019-05-13T10:11:30.929Z,36.20
2019-05-13T10:14:01.816Z,35.10
2019-05-13T10:16:31.412Z,34.70
2019-05-13T10:19:01.690Z,34.60
2019-05-13T10:21:32.743Z,34.70
2019-05-13T10:24:00.626Z,34.60
2019-05-13T10:26:31.946Z,35.30
2019-05-13T10:29:00.463Z,34.30
2019-05-13T10:31:31.248Z,33.80
2019-05-13T10:34:02.008Z,34.00
2019-05-13T10:36:29.226Z,33.70
2019-05-13T10:38:57.643Z,32.50
2019-05-13T10:41:26.454Z,33.30
2019-05-13T10:43:54.891Z,33.40
2019-05-13T10:46:23.455Z,33.30
2019-05-13T10:48:54.774Z,33.70
2019-05-13T10:51:23.222Z,33.80
2019-05-13T10:53:53.564Z,33.20
2019-05-13T10:56:21.873Z,33.20
2019-05-13T10:58:53.485Z,33.10
2019-05-13T11:03:52.465Z,32.30
2019-05-13T11:06:21.887Z,32.70
2019-05-13T11:08:53.051Z,32.90
2019-05-13T11:11:21.897Z,32.20
2019-05-13T11:13:58.740Z,31.70
2019-05-13T11:16:22.527Z,32.60
2019-05-13T11:18:51.870Z,31.70
2019-05-13T11:21:22.269Z,31.20
2019-05-13T11:23:51.810Z,30.80
2019-05-13T11:26:22.156Z,31.60
2019-05-13T11:28:52.099Z,30.70
2019-05-13T11:31:22.423Z,30.20
2019-05-13T11:33:51.985Z,30.40
2019-05-13T11:36:23.292Z,30.30
2019-05-13T11:38:53.182Z,30.60
2019-05-13T11:41:22.905Z,30.20
2019-05-13T11:44:09.280Z,30.30
2019-05-13T11:46:22.523Z,31.40
2019-05-13T11:48:52.064Z,31.70
2019-05-13T11:51:24.013Z,31.60
2019-05-13T11:53:52.462Z,31.40
2019-05-13T11:56:23.015Z,32.00
2019-05-13T11:58:53.430Z,30.70
2019-05-13T12:01:22.867Z,30.50
2019-05-13T12:03:53.205Z,31.30
2019-05-13T12:06:23.336Z,30.00
2019-05-13T12:08:55.217Z,30.40
2019-05-13T12:11:22.559Z,30.40
2019-05-13T12:16:24.194Z,29.90
2019-05-13T12:18:53.016Z,30.00
2019-05-13T12:21:21.661Z,29.40
2019-05-13T12:23:52.756Z,28.90
2019-05-13T12:26:23.450Z,29.40
2019-05-13T12:28:53.542Z,29.20
2019-05-13T12:31:22.304Z,29.10
2019-05-13T12:33:52.201Z,28.20
2019-05-13T12:36:23.663Z,29.00
2019-05-13T12:38:53.533Z,28.50
2019-05-13T12:41:23.060Z,28.90
2019-05-13T12:43:53.932Z,28.70
2019-05-13T12:46:24.832Z,28.00
2019-05-13T12:48:52.155Z,27.80
2019-05-13T12:51:22.702Z,27.50
2019-05-13T12:53:52.753Z,27.80
2019-05-13T12:58:51.945Z,27.80
2019-05-13T13:01:23.862Z,27.40
2019-05-13T13:03:50.978Z,27.40
2019-05-13T13:06:31.295Z,27.60
2019-05-13T13:08:50.770Z,28.00
2019-05-13T13:11:22.542Z,27.30
2019-05-13T13:13:59.147Z,27.20
2019-05-13T13:16:19.811Z,27.60
2019-05-13T13:18:48.244Z,27.90
2019-05-13T13:21:16.662Z,27.70
2019-05-13T13:23:45.109Z,27.40
2019-05-13T13:26:15.986Z,27.10
2019-05-13T13:28:43.861Z,27.80
2019-05-13T13:31:13.126Z,27.20
2019-05-13T13:33:44.504Z,27.50
2019-05-13T13:36:15.618Z,27.40
2019-05-13T13:38:43.714Z,27.20
2019-05-13T13:41:21.950Z,27.50
2019-05-13T13:43:42.622Z,27.00
2019-05-13T13:46:25.144Z,27.20
2019-05-13T13:48:43.799Z,26.80
2019-05-13T13:51:14.117Z,27.00
2019-05-13T13:53:44.364Z,27.00
2019-05-13T13:56:14.523Z,27.30
2019-05-13T13:58:43.791Z,28.20
2019-05-13T14:01:18.541Z,27.50
2019-05-13T14:03:46.166Z,27.10
2019-05-13T14:06:12.736Z,26.80
2019-05-13T14:06:26.943Z,32.90
2019-05-13T14:06:35.508Z,28.10
2019-05-13T14:07:06.049Z,29.80
2019-05-13T14:08:41.629Z,27.50
2019-05-13T14:11:11.632Z,27.50
2019-05-13T14:13:42.521Z,27.20
2019-05-13T14:16:24.763Z,27.00
2019-05-13T14:18:42.109Z,27.30
2019-05-13T14:21:10.775Z,27.10
2019-05-13T14:23:39.566Z,26.60
2019-05-13T14:26:08.092Z,26.60
2019-05-13T14:28:36.575Z,27.20
2019-05-13T14:31:05.154Z,27.10
2019-05-13T14:33:35.534Z,27.00
2019-05-13T14:36:03.841Z,27.10
2019-05-13T14:38:32.924Z,26.60
2019-05-13T14:41:03.479Z,26.40
2019-05-13T14:43:32.162Z,26.60
2019-05-13T14:46:02.318Z,26.40
2019-05-13T14:48:32.911Z,26.30
2019-05-13T14:51:01.887Z,26.00
2019-05-13T14:53:32.214Z,26.10
2019-05-13T14:56:03.066Z,26.10
2019-05-13T14:58:32.470Z,26.60
2019-05-13T15:01:12.566Z,26.20
2019-05-13T15:03:33.019Z,26.10
2019-05-13T15:06:02.141Z,26.30
2019-05-13T15:08:32.821Z,26.50
2019-05-13T15:11:01.861Z,26.20
2019-05-13T15:13:31.892Z,26.10
2019-05-13T15:16:00.730Z,26.10
2019-05-13T15:18:29.248Z,26.30
2019-05-13T15:20:58.044Z,26.40
2019-05-13T15:23:26.593Z,26.30
2019-05-13T15:25:55.036Z,26.20
2019-05-13T15:28:23.446Z,26.20
2019-05-13T15:30:51.937Z,26.20
2019-05-13T15:33:21.549Z,26.20
2019-05-13T15:35:51.978Z,26.10
2019-05-13T15:38:21.183Z,26.20
2019-05-13T15:40:52.187Z,25.90
2019-05-13T15:43:22.350Z,26.10
2019-05-13T15:45:51.423Z,26.50
2019-05-13T15:48:21.671Z,26.50
2019-05-13T15:50:51.299Z,26.70
2019-05-13T15:53:21.480Z,26.90
2019-05-13T15:55:51.664Z,27.00
2019-05-13T15:58:38.039Z,27.00
2019-05-13T16:00:52.720Z,27.10
2019-05-13T16:03:21.587Z,27.20
2019-05-13T16:05:51.641Z,27.20
2019-05-13T16:08:20.491Z,27.40
2019-05-13T16:10:49.026Z,27.40
2019-05-13T16:13:17.650Z,27.40
2019-05-13T16:15:46.082Z,27.40
2019-05-13T16:18:14.537Z,27.40
2019-05-13T16:20:45.385Z,27.40
2019-05-13T16:23:13.126Z,27.50
2019-05-13T16:25:41.868Z,27.50
2019-05-13T16:28:11.866Z,27.60
2019-05-13T16:30:42.042Z,28.00
2019-05-13T16:33:12.197Z,27.60
2019-05-13T16:35:42.462Z,27.70
2019-05-13T16:38:11.391Z,27.80
2019-05-13T16:40:42.352Z,27.90
2019-05-13T16:43:12.862Z,28.20
2019-05-13T16:45:42.370Z,28.20
2019-05-13T16:48:12.362Z,28.30
2019-05-13T16:50:41.832Z,28.40
2019-05-13T16:53:10.514Z,28.50
2019-05-13T16:55:38.958Z,28.60
2019-05-13T16:58:07.388Z,28.80
2019-05-13T17:00:35.880Z,28.90
2019-05-13T17:03:05.349Z,28.90
2019-05-13T17:05:33.791Z,28.90
2019-05-13T17:08:02.277Z,29.20
2019-05-13T17:10:31.611Z,29.30
2019-05-13T17:13:02.909Z,29.30
2019-05-13T17:15:31.235Z,29.40
2019-05-13T17:18:09.256Z,29.40
2019-05-13T17:20:32.074Z,29.60
2019-05-13T17:23:01.832Z,29.60
2019-05-13T17:25:30.526Z,29.70
2019-05-13T17:27:58.941Z,29.80
2019-05-13T17:30:27.359Z,30.00
2019-05-13T17:32:55.806Z,30.00
2019-05-13T17:35:24.226Z,30.00
2019-05-13T17:37:53.114Z,30.10
2019-05-13T17:40:22.423Z,30.40
2019-05-13T17:42:51.239Z,30.60
2019-05-13T17:45:21.831Z,30.90
2019-05-13T17:47:51.872Z,31.30
2019-05-13T17:50:22.090Z,31.50
2019-05-13T17:52:51.391Z,31.80
2019-05-13T17:55:22.074Z,32.10
2019-05-13T17:57:50.200Z,32.30
2019-05-13T18:00:18.682Z,32.50
2019-05-13T18:02:47.279Z,32.70
2019-05-13T18:05:15.980Z,33.70
2019-05-13T18:07:44.387Z,33.10
2019-05-13T18:10:14.438Z,33.40
2019-05-13T18:12:43.181Z,33.50
2019-05-13T18:15:11.990Z,33.60
2019-05-13T18:17:41.839Z,33.80
2019-05-13T18:20:11.564Z,34.00
2019-05-13T18:22:42.016Z,34.20
2019-05-13T18:25:12.022Z,34.30
2019-05-13T18:27:41.604Z,34.60
2019-05-13T18:30:11.436Z,34.70
2019-05-13T18:32:40.141Z,35.00
2019-05-13T18:35:12.084Z,35.20
2019-05-13T18:37:41.961Z,35.40
2019-05-13T18:40:11.580Z,35.70
2019-05-13T18:42:42.111Z,35.70
2019-05-13T18:45:11.866Z,36.00
2019-05-13T18:47:40.305Z,36.20
2019-05-13T18:50:11.336Z,36.90
2019-05-13T18:52:41.809Z,36.50
2019-05-13T18:55:12.213Z,36.80
2019-05-13T18:57:39.823Z,36.90
2019-05-13T19:00:08.376Z,37.20
2019-05-13T19:02:36.807Z,37.40
2019-05-13T19:05:06.639Z,37.50
2019-05-13T19:07:35.068Z,37.70
2019-05-13T19:10:04.241Z,37.80
2019-05-13T19:12:32.717Z,37.90
2019-05-13T19:15:02.433Z,38.10
2019-05-13T19:17:32.219Z,38.30
2019-05-13T19:20:00.951Z,38.30
2019-05-13T19:22:31.653Z,38.50
2019-05-13T19:25:01.104Z,38.70
2019-05-13T19:27:31.944Z,39.00
2019-05-13T19:30:01.373Z,39.00
2019-05-13T19:32:32.334Z,39.00
2019-05-13T19:35:02.592Z,39.10
2019-05-13T19:37:31.710Z,39.20
2019-05-13T19:40:01.201Z,39.30
2019-05-13T19:42:31.352Z,39.50
2019-05-13T19:45:01.956Z,39.50
2019-05-13T19:47:30.208Z,39.50
2019-05-13T19:49:58.620Z,39.50
2019-05-13T19:52:27.038Z,39.70
2019-05-13T19:54:55.476Z,39.80
2019-05-13T19:57:23.952Z,40.00
2019-05-13T19:59:52.446Z,40.10
2019-05-13T20:02:22.359Z,40.20
2019-05-13T20:04:51.832Z,40.30
2019-05-13T20:07:22.407Z,40.50
2019-05-13T20:09:51.868Z,40.50
2019-05-13T20:12:21.248Z,40.60
2019-05-13T20:14:51.600Z,40.70
2019-05-13T20:17:19.866Z,40.80
2019-05-13T20:19:51.464Z,40.90
2019-05-13T20:22:18.484Z,41.00
2019-05-13T20:24:46.915Z,41.00
2019-05-13T20:27:15.330Z,41.20
2019-05-13T20:29:43.772Z,41.30
2019-05-13T20:32:12.221Z,41.30
2019-05-13T20:34:40.656Z,41.80
2019-05-13T20:37:12.413Z,41.80
2019-05-13T20:39:42.477Z,41.70
2019-05-13T20:42:12.471Z,41.90
2019-05-13T20:44:41.976Z,42.60
2019-05-13T20:47:11.764Z,42.00
2019-05-13T20:49:41.744Z,42.10
2019-05-13T20:52:14.681Z,42.10
2019-05-13T20:54:41.775Z,42.40
2019-05-13T20:57:10.252Z,42.30
2019-05-13T20:59:41.187Z,42.40
2019-05-13T21:02:08.959Z,42.50
2019-05-13T21:04:38.910Z,42.50
2019-05-13T21:07:07.333Z,42.50
2019-05-13T21:09:35.908Z,42.50
2019-05-13T21:12:05.302Z,42.70
2019-05-13T21:14:33.765Z,42.70
2019-05-13T21:17:02.209Z,42.20
2019-05-13T21:19:39.417Z,42.90
2019-05-13T21:22:03.050Z,42.80
2019-05-13T21:24:32.008Z,42.70
2019-05-13T21:27:01.940Z,42.90
2019-05-13T21:29:32.298Z,43.00
2019-05-13T21:32:01.222Z,43.10
2019-05-13T21:34:31.620Z,43.10
2019-05-13T21:37:02.106Z,43.10
2019-05-13T21:39:31.956Z,42.90
2019-05-13T21:42:02.268Z,43.00
2019-05-13T21:44:32.481Z,43.00
2019-05-13T21:47:02.134Z,43.10
2019-05-13T21:49:31.918Z,43.00
2019-05-13T21:52:00.929Z,43.10
2019-05-13T21:54:33.210Z,43.10
2019-05-13T21:57:02.050Z,43.10
2019-05-13T21:59:31.885Z,43.10
2019-05-13T22:02:01.591Z,43.10
2019-05-13T22:04:30.120Z,43.20
2019-05-13T22:06:58.537Z,43.20
2019-05-13T22:09:26.966Z,43.30
2019-05-13T22:11:55.395Z,43.20
2019-05-13T22:14:23.812Z,43.30
2019-05-13T22:16:52.335Z,43.30
2019-05-13T22:19:22.301Z,43.30
2019-05-13T22:21:51.532Z,43.40
2019-05-13T22:24:21.730Z,43.40
2019-05-13T22:26:51.198Z,43.50
2019-05-13T22:29:22.983Z,43.50
2019-05-13T22:31:51.192Z,43.60
2019-05-13T22:34:21.363Z,43.60
2019-05-13T22:36:51.709Z,43.60
2019-05-13T22:39:22.023Z,43.50
2019-05-13T22:41:52.290Z,43.60
2019-05-13T22:44:21.763Z,43.60
2019-05-13T22:46:51.754Z,43.60
2019-05-13T22:49:22.090Z,43.70
2019-05-13T22:51:51.547Z,43.70
2019-05-13T22:54:21.182Z,43.70
2019-05-13T22:56:52.059Z,44.70
2019-05-13T22:59:21.466Z,44.60
2019-05-13T23:01:52.188Z,44.60
2019-05-13T23:04:20.289Z,44.70
2019-05-13T23:06:51.951Z,44.70
2019-05-13T23:09:21.532Z,44.80
2019-05-13T23:11:51.139Z,44.80
2019-05-13T23:14:21.832Z,45.00
2019-05-13T23:16:49.916Z,45.00
2019-05-13T23:19:18.338Z,45.00
2019-05-13T23:21:46.744Z,45.20
2019-05-13T23:24:15.179Z,46.00
2019-05-13T23:26:43.589Z,45.40
2019-05-13T23:29:12.003Z,45.50
2019-05-13T23:31:41.517Z,45.60
2019-05-13T23:34:12.075Z,45.90
2019-05-13T23:36:42.224Z,45.90
2019-05-13T23:39:11.625Z,45.90
2019-05-13T23:41:41.623Z,45.90
2019-05-13T23:44:23.784Z,46.00
2019-05-13T23:46:42.069Z,46.00
2019-05-13T23:49:31.660Z,47.00
2019-05-13T23:52:02.344Z,46.20
2019-05-13T23:54:31.626Z,46.40
2019-05-13T23:57:01.194Z,46.40
2019-05-13T23:59:31.237Z,46.60
